METAR Data
IDs: Format: Raw Decoded Include TAF

Data at: 0059 UTC 24 May 2019

METAR for:PANC (Anchorage Intl, AK, US)
Text:PANC 240053Z 05008KT 10SM FEW050 BKN080 BKN100 OVC180 14/03 A3003 RMK AO2 SLPNO T01440028
Temperature: 14.4°C ( 58°F)
Dewpoint: 2.8°C ( 37°F) [RH = 46%]
Pressure (altimeter):30.03 inches Hg (1017.0 mb)
Winds:from the NE (50 degrees) at 9 MPH (8 knots; 4.1 m/s)
Visibility:10 or more sm (16+ km)
Ceiling:8000 feet AGL
Clouds: few clouds at 5000 feet AGL, broken clouds at 8000 feet AGL, broken clouds at 10000 feet AGL, overcast cloud deck at 18000 feet AGL
Text:PANC 232353Z 02006KT 10SM FEW045 BKN080 OVC200 14/03 A3003 RMK AO2 SLPNO 6//// T01390028 10156 20111
Temperature: 13.9°C ( 57°F)
Dewpoint: 2.8°C ( 37°F) [RH = 47%]
Pressure (altimeter):30.03 inches Hg (1017.0 mb)
Winds:from the NNE (20 degrees) at 7 MPH (6 knots; 3.1 m/s)
Visibility:10 or more sm (16+ km)
Ceiling:8000 feet AGL
Clouds: few clouds at 4500 feet AGL, broken clouds at 8000 feet AGL, overcast cloud deck at 20000 feet AGL
Text:PANC 232253Z 06006KT 10SM FEW045 BKN100 OVC200 14/04 A3003 RMK AO2 SLPNO T01440039 $
Temperature: 14.4°C ( 58°F)
Dewpoint: 3.9°C ( 39°F) [RH = 49%]
Pressure (altimeter):30.03 inches Hg (1017.0 mb)
Winds:from the ENE (60 degrees) at 7 MPH (6 knots; 3.1 m/s)
Visibility:10 or more sm (16+ km)
Ceiling:10000 feet AGL
Clouds: few clouds at 4500 feet AGL, broken clouds at 10000 feet AGL, overcast cloud deck at 20000 feet AGL
QC Flag:SOME DATA ABOVE MAY BE INACCURATE!!!"$" is an indication the sensor requires maintenance.
Text:PANC 232153Z 15009KT 10SM FEW045 BKN080 OVC150 13/06 A3003 RMK AO2 SLP168 T01280061 $
Temperature: 12.8°C ( 55°F)
Dewpoint: 6.1°C ( 43°F) [RH = 64%]
Pressure (altimeter):30.03 inches Hg (1017.0 mb) [Sea level pressure: 1016.8 mb]
Winds:from the SSE (150 degrees) at 10 MPH (9 knots; 4.6 m/s)
Visibility:10 or more sm (16+ km)
Ceiling:8000 feet AGL
Clouds: few clouds at 4500 feet AGL, broken clouds at 8000 feet AGL, overcast cloud deck at 15000 feet AGL
QC Flag:SOME DATA ABOVE MAY BE INACCURATE!!!"$" is an indication the sensor requires maintenance.
Text:PANC 232053Z 00000KT 10SM FEW045 BKN080 OVC150 12/05 A3002 RMK AO2 SLP166 6//// T01220050 50003 PNO $
Temperature: 12.2°C ( 54°F)
Dewpoint: 5.0°C ( 41°F) [RH = 61%]
Pressure (altimeter):30.02 inches Hg (1016.7 mb) [Sea level pressure: 1016.6 mb]
Winds:calm
Visibility:10 or more sm (16+ km)
Ceiling:8000 feet AGL
Clouds: few clouds at 4500 feet AGL, broken clouds at 8000 feet AGL, overcast cloud deck at 15000 feet AGL
QC Flag:SOME DATA ABOVE MAY BE INACCURATE!!!"$" is an indication the sensor requires maintenance.
Text:PANC 231953Z 00000KT 10SM BKN080 OVC150 12/05 A3002 RMK AO2 RAB07E53 SLP166 T01220050 PNO $
Temperature: 12.2°C ( 54°F)
Dewpoint: 5.0°C ( 41°F) [RH = 61%]
Pressure (altimeter):30.02 inches Hg (1016.7 mb) [Sea level pressure: 1016.6 mb]
Winds:calm
Visibility:10 or more sm (16+ km)
Ceiling:8000 feet AGL
Clouds: broken clouds at 8000 feet AGL, overcast cloud deck at 15000 feet AGL
QC Flag:SOME DATA ABOVE MAY BE INACCURATE!!!"$" is an indication the sensor requires maintenance.

TAF for:PANC (Anchorage Intl, AK, US) issued at 2339 UTC 23 May 2019
Text:PANC 232339Z 2400/2506 13006KT P6SM SCT045 BKN100
Forecast period:0000 to 1200 UTC 24 May 2019
Forecast type:FROM: standard forecast or significant change
Winds:from the SE (130 degrees) at 7 MPH (6 knots; 3.1 m/s)
Visibility:6 or more sm (10+ km)
Ceiling:10000 feet AGL
Clouds: scattered clouds at 4500 feet AGL, broken clouds at 10000 feet AGL
Text:FM241200 16005KT P6SM SCT060 BKN100
Forecast period:1200 UTC 24 May 2019 to 0600 UTC 25 May 2019
Forecast type:FROM: standard forecast or significant change
Winds:from the SSE (160 degrees) at 6 MPH (5 knots; 2.6 m/s)
Visibility:6 or more sm (10+ km)
Ceiling:10000 feet AGL
Clouds: scattered clouds at 6000 feet AGL, broken clouds at 10000 feet AGL